Time;durP1;ratioP1;P1;durP2;ratioP2;P2;SDS_P1;SDS_P2;PMS_P1;PMS_P2;Temp;Humidity;BMP_temperature;BMP_pressure;BME280_temperature;BME280_humidity;BME280_pressure;Samples;Min_cycle;Max_cycle;Signal;HPM_P1;HPM_P2
2023/04/25 00:07:44;;;;;;;;;;;;;;;7.33;100.00;97263.31;18560106;32;19960;-59
2023/04/25 00:17:47;;;;;;;;;;;;;;;7.30;100.00;97244.97;18559767;31;19968;-59
2023/04/25 00:27:49;;;;;;;;;;;;;;;7.12;100.00;97240.81;18559091;32;19967;-59
2023/04/25 00:37:51;;;;;;;;;;;;;;;7.03;100.00;97235.13;18566364;32;19961;-59
2023/04/25 00:47:54;;;;;;;;;;;;;;;6.90;100.00;97240.94;18570453;32;19961;-59
2023/04/25 00:57:56;;;;;;;;;;;;;;;6.74;100.00;97232.75;18570149;32;19973;-59
2023/04/25 01:07:59;;;;;;;;;;;;;;;6.62;100.00;97232.13;18569164;32;20272;-59
2023/04/25 01:18:01;;;;;;;;;;;;;;;6.43;100.00;97227.09;18568798;32;19997;-59
2023/04/25 01:28:04;;;;;;;;;;;;;;;6.34;100.00;97215.19;18567816;31;20328;-59
2023/04/25 01:38:06;;;;;;;;;;;;;;;6.34;100.00;97204.44;18567653;32;19976;-59
2023/04/25 01:48:09;;;;;;;;;;;;;;;6.36;100.00;97185.38;18566932;32;19957;-59
2023/04/25 01:58:12;;;;;;;;;;;;;;;6.06;100.00;97181.37;18566460;32;20371;-59
2023/04/25 02:08:16;;;;;;;;;;;;;;;5.63;100.00;97173.06;18565443;31;19949;-59
2023/04/25 02:18:19;;;;;;;;;;;;;;;5.36;100.00;97165.78;18565170;32;19971;-59
2023/04/25 02:28:21;;;;;;;;;;;;;;;5.26;100.00;97158.41;18549861;32;20336;-59
2023/04/25 02:38:23;;;;;;;;;;;;;;;5.11;100.00;97152.03;18563828;32;19973;-58
2023/04/25 02:48:25;;;;;;;;;;;;;;;4.83;100.00;97151.13;18563384;32;20021;-59
2023/04/25 02:58:27;;;;;;;;;;;;;;;4.87;100.00;97146.91;18562853;32;19972;-59
2023/04/25 03:08:32;;;;;;;;;;;;;;;4.96;100.00;97125.84;18562127;32;19953;-59
2023/04/25 03:18:34;;;;;;;;;;;;;;;4.97;100.00;97108.72;18547999;32;19961;-58
2023/04/25 03:28:36;;;;;;;;;;;;;;;5.06;100.00;97104.56;18561391;32;19989;-59
2023/04/25 03:38:38;;;;;;;;;;;;;;;5.12;100.00;97095.50;18561236;32;19961;-59
2023/04/25 03:48:40;;;;;;;;;;;;;;;5.20;100.00;97088.91;18560875;32;19937;-59
2023/04/25 03:58:43;;;;;;;;;;;;;;;5.25;100.00;97091.66;18560336;32;19953;-59
2023/04/25 04:08:45;;;;;;;;;;;;;;;5.27;100.00;97089.53;18548934;32;20141;-59
2023/04/25 04:18:47;;;;;;;;;;;;;;;5.32;100.00;97091.47;18572300;32;20407;-59
2023/04/25 04:28:54;;;;;;;;;;;;;;;5.40;100.00;97094.50;18557415;31;19956;-59
2023/04/25 04:38:56;;;;;;;;;;;;;;;5.63;100.00;97075.72;18571369;32;19956;-59
2023/04/25 04:48:58;;;;;;;;;;;;;;;5.82;100.00;97078.84;18570419;32;20284;-58
2023/04/25 04:59:02;;;;;;;;;;;;;;;6.02;100.00;97188.31;18570340;32;20004;-58
2023/04/25 05:09:04;;;;;;;;;;;;;;;5.76;100.00;97204.88;18569579;32;19964;-58
2023/04/25 05:19:06;;;;;;;;;;;;;;;5.77;100.00;97189.63;18568411;32;19979;-58
2023/04/25 05:29:08;;;;;;;;;;;;;;;5.83;100.00;97155.59;18553571;31;20009;-59
2023/04/25 05:39:11;;;;;;;;;;;;;;;5.86;100.00;97160.44;18568668;32;20309;-59
2023/04/25 05:49:13;;;;;;;;;;;;;;;5.89;100.00;97166.13;18552846;32;20383;-58
2023/04/25 05:59:18;;;;;;;;;;;;;;;6.01;100.00;97168.69;18566759;32;19956;-59
2023/04/25 06:09:21;;;;;;;;;;;;;;;6.13;100.00;97148.97;18565602;32;19960;-59
2023/04/25 06:19:23;;;;;;;;;;;;;;;6.31;100.00;97153.94;18565180;32;20001;-59
2023/04/25 06:29:25;;;;;;;;;;;;;;;6.37;100.00;97193.22;18563935;32;20003;-57
2023/04/25 06:39:28;;;;;;;;;;;;;;;6.50;100.00;97196.56;18563120;32;20002;-57
2023/04/25 06:49:30;;;;;;;;;;;;;;;6.69;100.00;97195.09;18549150;32;19967;-57
2023/04/25 06:59:32;;;;;;;;;;;;;;;6.74;100.00;97208.56;18548337;32;19964;-57
2023/04/25 07:09:35;;;;;;;;;;;;;;;6.86;100.00;97226.37;18562254;32;19957;-57
2023/04/25 07:19:39;;;;;;;;;;;;;;;6.96;100.00;97234.53;18547500;32;20367;-57
2023/04/25 07:29:42;;;;;;;;;;;;;;;6.99;100.00;97244.78;18560751;31;19953;-57
2023/04/25 07:39:46;;;;;;;;;;;;;;;6.97;100.00;97254.97;18546903;32;20032;-58
2023/04/25 07:49:49;;;;;;;;;;;;;;;7.11;100.00;97266.91;18572673;32;19956;-57
2023/04/25 07:59:52;;;;;;;;;;;;;;;7.17;100.00;97281.19;18573667;32;19975;-57
2023/04/25 08:09:54;;;;;;;;;;;;;;;7.90;100.00;97299.41;18558606;32;19963;-57
2023/04/25 08:19:57;;;;;;;;;;;;;;;8.59;100.00;97319.09;18572407;32;20001;-58
2023/04/25 08:30:00;;;;;;;;;;;;;;;8.74;100.00;97337.19;18557360;32;19953;-58
2023/04/25 08:40:06;;;;;;;;;;;;;;;8.88;100.00;97353.66;18571509;32;20008;-57
2023/04/25 08:50:09;;;;;;;;;;;;;;;9.06;100.00;97368.53;18569864;32;19975;-58
2023/04/25 09:00:12;;;;;;;;;;;;;;;9.27;100.00;97380.13;18569233;32;19956;-60
2023/04/25 09:10:14;;;;;;;;;;;;;;;10.12;100.00;97381.44;18554476;32;19957;-60
2023/04/25 09:20:17;;;;;;;;;;;;;;;10.73;100.00;97400.44;18568756;32;19972;-60
2023/04/25 09:30:29;;;;;;;;;;;;;;;11.49;100.00;97414.59;18553604;32;19971;-60
2023/04/25 09:40:31;;;;;;;;;;;;;;;11.37;100.00;97417.66;18554636;32;20004;-59
2023/04/25 09:50:34;;;;;;;;;;;;;;;11.79;100.00;97429.81;18552200;32;19976;-59
2023/04/25 10:00:37;;;;;;;;;;;;;;;12.05;100.00;97437.75;18552184;32;19965;-59
2023/04/25 10:10:40;;;;;;;;;;;;;;;12.93;100.00;97450.38;18564717;32;19986;-59
2023/04/25 10:20:43;;;;;;;;;;;;;;;13.44;100.00;97448.88;18564767;31;19975;-59
2023/04/25 10:31:02;;;;;;;;;;;;;;;13.87;100.00;97446.84;18564318;32;19975;-59
2023/04/25 10:41:08;;;;;;;;;;;;;;;14.04;94.03;97456.37;18563729;32;19957;-59
2023/04/25 10:51:11;;;;;;;;;;;;;;;13.79;94.70;97428.50;18563421;32;19978;-59
2023/04/25 11:01:14;;;;;;;;;;;;;;;14.58;91.78;97441.25;18563077;32;19968;-59
2023/04/25 11:11:17;;;;;;;;;;;;;;;14.38;79.48;97444.38;18562002;32;20256;-59
2023/04/25 11:21:20;;;;;;;;;;;;;;;14.40;80.71;97453.00;18561540;32;19969;-59
2023/04/25 11:31:24;;;;;;;;;;;;;;;14.79;73.94;97449.06;18561066;32;19964;-59
2023/04/25 11:41:27;;;;;;;;;;;;;;;15.54;80.55;97451.53;18561019;32;19961;-59
2023/04/25 11:51:30;;;;;;;;;;;;;;;16.26;67.85;97449.81;18546503;32;20040;-59
2023/04/25 12:01:34;;;;;;;;;;;;;;;16.38;72.32;97455.50;18560614;32;19948;-59
2023/04/25 12:11:43;;;;;;;;;;;;;;;17.67;63.61;97449.09;18559947;32;19978;-59
2023/04/25 12:21:46;;;;;;;;;;;;;;;18.68;54.86;97464.38;18559919;32;20358;-59
2023/04/25 12:31:59;;;;;;;;;;;;;;;17.17;51.50;97485.06;18551557;32;19957;-59
2023/04/25 12:42:02;;;;;;;;;;;;;;;13.80;76.90;97476.34;18571047;32;19952;-59
2023/04/25 12:52:09;;;;;;;;;;;;;;;12.74;100.00;97472.81;18570875;32;19997;-59
2023/04/25 13:02:12;;;;;;;;;;;;;;;12.81;100.00;97500.44;18569846;31;19952;-59
2023/04/25 13:12:15;;;;;;;;;;;;;;;13.86;100.00;97512.38;18554578;32;19989;-59
2023/04/25 13:22:19;;;;;;;;;;;;;;;13.88;100.00;97524.59;18568838;32;19979;-59
2023/04/25 13:32:22;;;;;;;;;;;;;;;14.28;100.00;97517.97;18567767;32;19956;-59
2023/04/25 13:42:24;;;;;;;;;;;;;;;14.35;100.00;97507.53;18553631;32;19991;-58
2023/04/25 13:52:27;;;;;;;;;;;;;;;16.04;100.00;97516.09;18566946;32;19971;-58
2023/04/25 14:02:30;;;;;;;;;;;;;;;16.89;82.01;97520.81;18566312;32;20336;-58
2023/04/25 14:12:33;;;;;;;;;;;;;;;16.28;67.65;97518.53;18565739;32;19961;-58
2023/04/25 14:22:35;;;;;;;;;;;;;;;16.04;83.41;97508.72;18565178;32;20305;-58
2023/04/25 14:32:38;;;;;;;;;;;;;;;16.34;82.59;97494.66;18563902;32;20008;-58
2023/04/25 14:42:40;;;;;;;;;;;;;;;17.79;66.74;97503.16;18548670;32;19944;-58
2023/04/25 14:52:44;;;;;;;;;;;;;;;18.25;62.51;97503.63;18562611;31;19975;-58
2023/04/25 15:02:50;;;;;;;;;;;;;;;17.44;66.68;97503.94;18562519;32;20004;-58
2023/04/25 15:12:54;;;;;;;;;;;;;;;15.15;60.53;97510.13;18562368;32;19957;-58
2023/04/25 15:22:58;;;;;;;;;;;;;;;13.58;85.48;97535.88;18561897;32;20003;-58
2023/04/25 15:33:00;;;;;;;;;;;;;;;13.02;100.00;97533.56;18561121;32;20330;-58
2023/04/25 15:43:03;;;;;;;;;;;;;;;13.26;100.00;97535.44;18561037;31;19948;-58
2023/04/25 15:53:06;;;;;;;;;;;;;;;12.86;100.00;97523.97;18560608;32;19965;-58
2023/04/25 16:03:09;;;;;;;;;;;;;;;13.16;100.00;97544.53;18562226;32;19962;-58
2023/04/25 16:13:12;;;;;;;;;;;;;;;12.63;100.00;97544.56;18573019;32;19979;-58
2023/04/25 16:23:15;;;;;;;;;;;;;;;11.67;100.00;97526.84;18572298;32;19960;-58
2023/04/25 16:33:18;;;;;;;;;;;;;;;11.85;100.00;97526.22;18557718;32;20290;-58
2023/04/25 16:43:21;;;;;;;;;;;;;;;13.08;100.00;97528.88;18571252;32;19989;-58
2023/04/25 16:53:23;;;;;;;;;;;;;;;13.51;100.00;97531.63;18570570;32;19968;-57
2023/04/25 17:03:27;;;;;;;;;;;;;;;13.32;100.00;97528.03;18569917;32;19967;-58
2023/04/25 17:13:29;;;;;;;;;;;;;;;12.96;100.00;97525.75;18569740;32;19961;-58
2023/04/25 17:23:33;;;;;;;;;;;;;;;13.34;100.00;97534.00;18568439;32;19956;-58
2023/04/25 17:33:35;;;;;;;;;;;;;;;13.12;100.00;97548.91;18567740;32;20241;-58
2023/04/25 17:43:37;;;;;;;;;;;;;;;12.39;100.00;97556.19;18567457;32;20008;-58
2023/04/25 17:53:40;;;;;;;;;;;;;;;11.60;100.00;97573.22;18566927;32;19971;-57
2023/04/25 18:03:44;;;;;;;;;;;;;;;10.47;100.00;97585.19;18566441;32;19956;-57
2023/04/25 18:13:46;;;;;;;;;;;;;;;9.86;100.00;97591.31;18565350;32;19989;-58
2023/04/25 18:23:49;;;;;;;;;;;;;;;9.63;100.00;97617.72;18551068;32;19941;-57
2023/04/25 18:33:52;;;;;;;;;;;;;;;9.39;100.00;97640.84;18563228;32;19952;-58
2023/04/25 18:43:57;;;;;;;;;;;;;;;8.82;100.00;97635.09;18563737;32;20303;-57
2023/04/25 18:54:10;;;;;;;;;;;;;;;8.60;100.00;97640.63;18563243;32;19953;-57
2023/04/25 19:04:13;;;;;;;;;;;;;;;8.35;100.00;97665.44;18548761;32;19969;-58
2023/04/25 19:14:16;;;;;;;;;;;;;;;8.16;100.00;97673.88;18562681;32;20361;-58
2023/04/25 19:24:18;;;;;;;;;;;;;;;8.12;100.00;97672.75;18561829;31;19952;-58
2023/04/25 19:34:21;;;;;;;;;;;;;;;8.02;100.00;97676.16;18545465;32;19983;-58
2023/04/25 19:44:23;;;;;;;;;;;;;;;7.83;100.00;97682.97;18560987;32;19968;-58
2023/04/25 19:54:26;;;;;;;;;;;;;;;7.67;100.00;97693.53;18560882;32;19956;-58
2023/04/25 20:04:28;;;;;;;;;;;;;;;7.56;100.00;97686.38;18560529;32;19960;-58
2023/04/25 20:14:31;;;;;;;;;;;;;;;7.46;100.00;97698.66;18560026;32;19952;-58
2023/04/25 20:24:34;;;;;;;;;;;;;;;7.52;100.00;97717.56;18559947;32;19956;-58
2023/04/25 20:34:36;;;;;;;;;;;;;;;7.42;100.00;97719.03;18480237;32;19949;-58
2023/04/25 20:44:39;;;;;;;;;;;;;;;7.43;100.00;97722.56;18480264;32;19968;-57
2023/04/25 20:54:42;;;;;;;;;;;;;;;7.38;100.00;97722.47;18486975;32;20381;-57
2023/04/25 21:04:45;;;;;;;;;;;;;;;7.14;100.00;97706.56;18478671;32;19949;-57
2023/04/25 21:14:47;;;;;;;;;;;;;;;6.78;100.00;97714.87;18490054;32;20400;-57
2023/04/25 21:24:52;;;;;;;;;;;;;;;6.52;100.00;97723.56;18504185;32;20359;-57
2023/04/25 21:34:55;;;;;;;;;;;;;;;6.27;100.00;97714.00;18566223;32;19987;-57
2023/04/25 21:44:57;;;;;;;;;;;;;;;6.00;100.00;97725.34;18567799;32;19952;-57
2023/04/25 21:54:59;;;;;;;;;;;;;;;5.75;100.00;97733.62;18552565;32;19972;-57
2023/04/25 22:05:01;;;;;;;;;;;;;;;5.51;100.00;97741.75;18551841;31;19948;-57
2023/04/25 22:15:04;;;;;;;;;;;;;;;5.26;100.00;97736.63;18551596;32;20333;-57
2023/04/25 22:25:07;;;;;;;;;;;;;;;5.26;100.00;97731.25;18565220;32;20369;-57
2023/04/25 22:35:10;;;;;;;;;;;;;;;5.35;100.00;97745.13;18550136;32;20012;-58
2023/04/25 22:45:13;;;;;;;;;;;;;;;5.35;100.00;97743.25;18564362;32;19971;-56
2023/04/25 22:55:15;;;;;;;;;;;;;;;5.15;100.00;97734.75;18563446;32;20015;-57
2023/04/25 23:05:17;;;;;;;;;;;;;;;4.97;100.00;97741.84;18548708;32;20379;-57
2023/04/25 23:15:19;;;;;;;;;;;;;;;4.77;100.00;97739.53;18561933;32;19956;-57
2023/04/25 23:25:21;;;;;;;;;;;;;;;4.54;100.00;97751.00;18561824;31;20310;-57
2023/04/25 23:35:23;;;;;;;;;;;;;;;4.46;100.00;97751.31;18547225;32;19960;-57
2023/04/25 23:45:25;;;;;;;;;;;;;;;4.48;100.00;97754.56;18561335;32;20341;-57
2023/04/25 23:55:27;;;;;;;;;;;;;;;4.69;100.00;97759.41;18546319;32;19975;-57
